createdAt,value
2022-12-25T00:02:04.454Z,101127.22
2022-12-25T00:04:32.453Z,101135.28
2022-12-25T00:07:00.523Z,101131.81
2022-12-25T00:09:28.859Z,101138.03
2022-12-25T00:11:56.904Z,101141.66
2022-12-25T00:14:26.646Z,101135.50
2022-12-25T00:16:54.635Z,101129.41
2022-12-25T00:19:24.049Z,101132.97
2022-12-25T00:21:52.172Z,101145.34
2022-12-25T00:24:20.161Z,101138.34
2022-12-25T00:26:48.198Z,101147.16
2022-12-25T00:29:16.205Z,101147.13
2022-12-25T00:31:44.376Z,101149.78
2022-12-25T00:34:12.489Z,101159.44
2022-12-25T00:36:42.395Z,101152.38
2022-12-25T00:39:11.332Z,101132.16
2022-12-25T00:41:56.800Z,101157.69
2022-12-25T00:44:24.794Z,101152.41
2022-12-25T00:46:52.841Z,101155.91
2022-12-25T00:49:22.305Z,101155.03
2022-12-25T00:51:52.180Z,101162.09
2022-12-25T00:54:20.665Z,101155.94
2022-12-25T00:56:48.703Z,101147.19
2022-12-25T00:59:16.741Z,101149.78
2022-12-25T01:01:45.172Z,101153.31
2022-12-25T01:04:13.939Z,101149.81
2022-12-25T01:06:42.317Z,101140.19
2022-12-25T01:09:29.149Z,101138.44
2022-12-25T01:11:57.094Z,101143.72
2022-12-25T01:14:25.097Z,101149.00
2022-12-25T01:16:53.199Z,101148.13
2022-12-25T01:19:21.190Z,101145.47
2022-12-25T01:21:49.157Z,101147.28
2022-12-25T01:24:18.473Z,101145.53
2022-12-25T01:26:46.464Z,101149.03
2022-12-25T01:29:14.395Z,101153.47
2022-12-25T01:31:42.451Z,101147.28
2022-12-25T01:34:10.451Z,101150.78
2022-12-25T01:36:38.562Z,101155.22
2022-12-25T01:39:06.770Z,101162.25
2022-12-25T01:41:36.099Z,101169.31
2022-12-25T01:44:07.325Z,101163.13
2022-12-25T01:46:37.324Z,101172.84
2022-12-25T01:49:08.315Z,101189.53
2022-12-25T01:51:40.759Z,101186.88
2022-12-25T01:54:13.138Z,101187.78
2022-12-25T01:56:44.723Z,101192.19
2022-12-25T01:59:14.757Z,101193.06
2022-12-25T02:01:42.924Z,101188.66
2022-12-25T02:04:20.861Z,101165.75
2022-12-25T02:06:50.941Z,101207.16
2022-12-25T02:09:19.783Z,101213.28
2022-12-25T02:11:57.950Z,101216.84
2022-12-25T02:14:28.356Z,101211.59
2022-12-25T02:17:04.914Z,101211.59
2022-12-25T02:19:47.901Z,101210.72
2022-12-25T02:22:29.254Z,101205.44
2022-12-25T02:25:13.645Z,101202.78
2022-12-25T02:28:16.499Z,101199.25
2022-12-25T02:30:49.312Z,101195.72
2022-12-25T02:33:40.671Z,101203.63
2022-12-25T02:36:14.967Z,101213.34
2022-12-25T02:39:04.294Z,101226.59
2022-12-25T02:41:37.230Z,101218.66
2022-12-25T02:44:31.558Z,101222.19
2022-12-25T02:47:17.682Z,101220.44
2022-12-25T02:50:04.185Z,101217.78
2022-12-25T02:52:50.362Z,101216.00
2022-12-25T02:55:40.073Z,101226.56
2022-12-25T02:58:30.249Z,101222.09
2022-12-25T03:01:22.685Z,101226.50
2022-12-25T03:04:11.602Z,101232.66
2022-12-25T03:06:45.796Z,101230.00
2022-12-25T03:09:36.229Z,101224.72
2022-12-25T03:12:14.435Z,101222.09
2022-12-25T03:15:00.384Z,101221.22
2022-12-25T03:17:31.528Z,101207.97
2022-12-25T03:20:17.316Z,101200.00
2022-12-25T03:23:05.166Z,101192.00
2022-12-25T03:25:51.394Z,101196.41
2022-12-25T03:28:19.421Z,101196.41
2022-12-25T03:31:11.845Z,101198.16
2022-12-25T03:34:09.471Z,101199.09
2022-12-25T03:36:46.346Z,101206.09
2022-12-25T03:39:49.834Z,101199.09
2022-12-25T03:42:38.621Z,101190.22
2022-12-25T03:45:29.743Z,101190.06
2022-12-25T03:48:16.361Z,101200.66
2022-12-25T03:51:06.834Z,101207.75
2022-12-25T03:53:58.554Z,101208.63
2022-12-25T03:56:45.160Z,101201.66
2022-12-25T03:59:29.930Z,101200.78
2022-12-25T04:02:15.725Z,101199.94
2022-12-25T04:05:01.116Z,101186.72
2022-12-25T04:07:48.041Z,101185.84
2022-12-25T04:10:29.972Z,101183.19
2022-12-25T04:13:15.704Z,101173.53
2022-12-25T04:16:01.344Z,101166.50
2022-12-25T04:18:46.966Z,101167.34
2022-12-25T04:21:32.527Z,101156.78
2022-12-25T04:24:19.324Z,101157.69
2022-12-25T04:27:04.961Z,101152.44
2022-12-25T04:29:50.364Z,101155.06
2022-12-25T04:32:36.067Z,101165.66
2022-12-25T04:35:21.765Z,101159.50
2022-12-25T04:37:49.728Z,101163.94
2022-12-25T04:40:19.390Z,101163.06
2022-12-25T04:42:47.509Z,101159.56
2022-12-25T04:45:15.481Z,101153.41
2022-12-25T04:47:43.450Z,101145.50
2022-12-25T04:50:11.622Z,101144.56
2022-12-25T04:52:41.667Z,101134.00
2022-12-25T04:55:11.552Z,101140.19
2022-12-25T04:57:41.196Z,101150.78
2022-12-25T05:00:10.449Z,101139.34
2022-12-25T05:02:38.580Z,101131.41
2022-12-25T05:05:07.066Z,101128.75
2022-12-25T05:07:35.055Z,101126.13
2022-12-25T05:10:03.036Z,101137.59
2022-12-25T05:12:30.989Z,101123.50
2022-12-25T05:15:00.390Z,101127.91
2022-12-25T05:17:28.436Z,101127.00
2022-12-25T05:19:56.480Z,101136.69
2022-12-25T05:22:24.552Z,101142.00
2022-12-25T05:24:52.573Z,101135.81
2022-12-25T05:27:21.645Z,101126.13
2022-12-25T05:29:49.634Z,101125.25
2022-12-25T05:32:18.943Z,101109.41
2022-12-25T05:34:46.941Z,101112.03
2022-12-25T05:37:15.095Z,101110.25
2022-12-25T05:39:43.044Z,101114.63
2022-12-25T05:42:11.026Z,101104.06
2022-12-25T05:44:39.063Z,101103.22
2022-12-25T05:47:07.048Z,101110.25
2022-12-25T05:49:36.391Z,101111.16
2022-12-25T05:52:04.607Z,101119.06
2022-12-25T05:54:32.597Z,101119.94
2022-12-25T05:57:00.565Z,101112.00
2022-12-25T05:59:30.158Z,101112.00
2022-12-25T06:01:58.686Z,101109.34
2022-12-25T06:04:26.968Z,101107.63
2022-12-25T06:06:56.414Z,101108.47
2022-12-25T06:09:24.415Z,101097.03
2022-12-25T06:11:52.462Z,101102.34
2022-12-25T06:14:20.443Z,101108.47
2022-12-25T06:16:52.346Z,101118.19
2022-12-25T06:19:20.898Z,101104.94
2022-12-25T06:21:49.485Z,101106.69
2022-12-25T06:24:21.420Z,101118.19
2022-12-25T06:26:49.893Z,101115.53
2022-12-25T06:29:18.031Z,101113.75
2022-12-25T06:31:46.130Z,101102.31
2022-12-25T06:34:16.402Z,101094.38
2022-12-25T06:36:44.543Z,101098.81
2022-12-25T06:39:12.537Z,101101.44
2022-12-25T06:41:42.064Z,101086.44
2022-12-25T06:44:10.171Z,101097.91
2022-12-25T06:46:38.139Z,101104.97
2022-12-25T06:49:06.135Z,101105.84
2022-12-25T06:51:34.662Z,101115.53
2022-12-25T06:54:04.260Z,101111.13
2022-12-25T06:56:33.309Z,101116.38
2022-12-25T06:59:04.492Z,101124.28
2022-12-25T07:01:36.572Z,101123.38
2022-12-25T07:04:07.259Z,101125.16
2022-12-25T07:06:35.492Z,101123.28
2022-12-25T07:09:03.897Z,101124.19
2022-12-25T07:11:31.898Z,101138.28
2022-12-25T07:13:59.917Z,101136.50
2022-12-25T07:16:29.366Z,101127.69
2022-12-25T07:19:05.710Z,101134.78
2022-12-25T07:21:33.701Z,101137.44
2022-12-25T07:24:01.701Z,101134.78
2022-12-25T07:26:29.719Z,101139.19
2022-12-25T07:28:57.674Z,101140.03
2022-12-25T07:31:25.729Z,101147.06
2022-12-25T07:33:54.958Z,101141.81
2022-12-25T07:36:24.331Z,101134.72
2022-12-25T07:38:52.613Z,101120.66
2022-12-25T07:41:20.600Z,101128.63
2022-12-25T07:43:50.908Z,101132.16
2022-12-25T07:46:19.445Z,101131.31
2022-12-25T07:48:47.490Z,101126.91
2022-12-25T07:51:17.147Z,101130.44
2022-12-25T07:53:46.703Z,101139.25
2022-12-25T07:56:16.535Z,101134.84
2022-12-25T07:58:45.020Z,101126.91
2022-12-25T08:01:18.127Z,101119.84
2022-12-25T08:03:50.495Z,101118.09
2022-12-25T08:06:19.169Z,101111.88
2022-12-25T08:08:48.905Z,101124.22
2022-12-25T08:11:17.067Z,101118.06
2022-12-25T08:13:45.095Z,101110.09
2022-12-25T08:16:13.352Z,101100.38
2022-12-25T08:18:43.017Z,101080.16
2022-12-25T08:21:14.354Z,101083.59
2022-12-25T08:23:44.465Z,101080.94
2022-12-25T08:26:16.350Z,101075.63
2022-12-25T08:28:44.348Z,101082.66
2022-12-25T08:31:16.659Z,101084.41
2022-12-25T08:33:44.820Z,101091.44
2022-12-25T08:36:13.595Z,101092.34
2022-12-25T08:38:44.183Z,101077.34
2022-12-25T08:41:14.361Z,101092.25
2022-12-25T08:43:43.195Z,101072.91
2022-12-25T08:46:11.748Z,101098.38
2022-12-25T08:48:42.330Z,101100.09
2022-12-25T08:51:14.483Z,101098.41
2022-12-25T08:53:42.699Z,101093.94
2022-12-25T08:56:11.035Z,101097.44
2022-12-25T08:58:40.631Z,101100.94
2022-12-25T09:01:09.103Z,101108.91
2022-12-25T09:03:37.563Z,101108.91
2022-12-25T09:06:07.019Z,101113.31
2022-12-25T09:08:36.129Z,101115.94
2022-12-25T09:11:05.449Z,101114.09
2022-12-25T09:13:34.249Z,101110.56
2022-12-25T09:16:06.748Z,101107.03
2022-12-25T09:18:34.763Z,101106.09
2022-12-25T09:21:04.265Z,101112.28
2022-12-25T09:23:33.665Z,101089.34
2022-12-25T09:26:03.043Z,101091.91
2022-12-25T09:28:32.047Z,101091.88
2022-12-25T09:31:00.489Z,101099.78
2022-12-25T09:33:29.908Z,101099.72
2022-12-25T09:35:59.442Z,101106.78
2022-12-25T09:38:27.738Z,101091.81
2022-12-25T09:41:00.947Z,101102.34
2022-12-25T09:43:31.819Z,101098.72
2022-12-25T09:46:02.231Z,101100.50
2022-12-25T09:48:34.804Z,101096.00
2022-12-25T09:51:07.499Z,101088.94
2022-12-25T09:53:39.668Z,101110.97
2022-12-25T09:56:12.248Z,101112.72
2022-12-25T09:58:40.479Z,101112.72
2022-12-25T10:01:20.027Z,101111.78
2022-12-25T10:04:05.522Z,101104.78
2022-12-25T10:06:42.560Z,101071.44
2022-12-25T10:09:33.066Z,101105.53
2022-12-25T10:12:13.694Z,101112.66
2022-12-25T10:14:56.042Z,101112.69
2022-12-25T10:17:35.716Z,101115.28
2022-12-25T10:20:13.544Z,101117.09
2022-12-25T10:22:45.262Z,101122.41
2022-12-25T10:25:17.717Z,101100.28
2022-12-25T10:27:46.553Z,101082.56
2022-12-25T10:30:17.516Z,101084.38
2022-12-25T10:32:46.808Z,101083.47
2022-12-25T10:35:18.593Z,101079.88
2022-12-25T10:37:52.774Z,101079.00
2022-12-25T10:40:31.435Z,101064.84
2022-12-25T10:43:05.196Z,101060.38
2022-12-25T10:45:44.017Z,101056.81
2022-12-25T10:48:20.630Z,101053.28
2022-12-25T10:50:50.532Z,101055.91
2022-12-25T10:53:22.190Z,101055.06
2022-12-25T10:55:58.012Z,101043.59
2022-12-25T10:58:26.557Z,101047.16
2022-12-25T11:00:56.354Z,101037.34
2022-12-25T11:03:27.642Z,101046.13
2022-12-25T11:05:57.159Z,101030.22
2022-12-25T11:08:28.449Z,101024.88
2022-12-25T11:10:58.698Z,101023.13
2022-12-25T11:13:29.159Z,101014.28
2022-12-25T11:16:06.567Z,100998.31
2022-12-25T11:18:37.011Z,100993.00
2022-12-25T11:21:18.504Z,100973.69
2022-12-25T11:23:48.503Z,101002.69
2022-12-25T11:26:17.399Z,101001.75
2022-12-25T11:28:46.629Z,100997.25
2022-12-25T11:31:16.625Z,100982.16
2022-12-25T11:33:51.729Z,100988.31
2022-12-25T11:36:30.955Z,100991.81
2022-12-25T11:39:06.289Z,100982.06
2022-12-25T11:41:37.471Z,100975.81
2022-12-25T11:44:13.281Z,100980.31
2022-12-25T11:46:46.939Z,100983.78
2022-12-25T11:49:19.222Z,100977.53
2022-12-25T11:51:51.438Z,100979.34
2022-12-25T11:54:26.301Z,100972.22
2022-12-25T11:56:54.622Z,100965.19
2022-12-25T11:59:28.691Z,100975.78
2022-12-25T12:02:01.175Z,100973.09
2022-12-25T12:04:40.313Z,100975.72
2022-12-25T12:07:21.829Z,100980.16
2022-12-25T12:09:55.932Z,100978.38
2022-12-25T12:12:30.698Z,100973.03
2022-12-25T12:15:07.982Z,100968.59
2022-12-25T12:17:36.312Z,100973.03
2022-12-25T12:20:12.836Z,100981.84
2022-12-25T12:22:51.255Z,100980.06
2022-12-25T12:25:20.063Z,100978.31
2022-12-25T12:27:59.788Z,100949.38
2022-12-25T12:30:34.765Z,100974.72
2022-12-25T12:33:05.564Z,100961.41
2022-12-25T12:35:36.085Z,100956.97
2022-12-25T12:38:08.791Z,100943.69
2022-12-25T12:40:39.497Z,100925.38
2022-12-25T12:43:22.549Z,100962.19
2022-12-25T12:45:57.084Z,100956.06
2022-12-25T12:48:27.739Z,100949.06
2022-12-25T12:51:04.242Z,100939.28
2022-12-25T12:53:34.430Z,100933.19
2022-12-25T12:56:14.858Z,100917.25
2022-12-25T12:58:49.974Z,100911.03
2022-12-25T13:01:39.585Z,100904.03
2022-12-25T13:04:33.189Z,100904.84
2022-12-25T13:07:11.913Z,100892.41
2022-12-25T13:09:55.205Z,100892.34
2022-12-25T13:12:23.895Z,100887.84
2022-12-25T13:14:52.023Z,100885.22
2022-12-25T13:17:24.047Z,100890.56
2022-12-25T13:19:56.165Z,100897.59
2022-12-25T13:22:27.156Z,100895.84
2022-12-25T13:25:01.486Z,100900.25
2022-12-25T13:27:31.384Z,100890.53
2022-12-25T13:30:00.245Z,100886.16
2022-12-25T13:32:31.012Z,100873.81
2022-12-25T13:35:00.446Z,100875.50
2022-12-25T13:37:31.581Z,100837.69
2022-12-25T13:40:02.974Z,100863.94
2022-12-25T13:42:32.225Z,100877.28
2022-12-25T13:45:02.849Z,100874.66
2022-12-25T13:47:34.267Z,100865.81
2022-12-25T13:50:16.185Z,100871.13
2022-12-25T13:52:44.178Z,100863.16
2022-12-25T13:55:16.330Z,100800.00
2022-12-25T13:57:47.165Z,100856.19
2022-12-25T14:00:20.769Z,100854.47
2022-12-25T14:02:50.332Z,100850.00
2022-12-25T14:05:28.100Z,100847.41
2022-12-25T14:07:57.965Z,100855.31
2022-12-25T14:10:29.961Z,100851.78
2022-12-25T14:13:02.262Z,100857.16
2022-12-25T14:15:32.909Z,100853.63
2022-12-25T14:18:01.572Z,100846.56
2022-12-25T14:20:32.262Z,100857.22
2022-12-25T14:23:01.224Z,100849.22
2022-12-25T14:25:33.409Z,100848.28
2022-12-25T14:28:05.986Z,100853.56
2022-12-25T14:30:34.114Z,100843.16
2022-12-25T14:33:03.361Z,100839.53
2022-12-25T14:35:32.052Z,100827.22
2022-12-25T14:38:01.270Z,100818.41
2022-12-25T14:40:32.490Z,100823.78
2022-12-25T14:43:02.180Z,100816.69
2022-12-25T14:45:32.686Z,100809.63
2022-12-25T14:48:04.076Z,100806.16
2022-12-25T14:50:35.178Z,100808.78
2022-12-25T14:53:03.233Z,100816.69
2022-12-25T14:55:32.659Z,100816.75
2022-12-25T14:58:04.562Z,100815.84
2022-12-25T15:00:35.771Z,100821.19
2022-12-25T15:03:06.450Z,100806.16
2022-12-25T15:05:36.974Z,100804.41
2022-12-25T15:08:21.801Z,100800.03
2022-12-25T15:11:01.772Z,100802.66
2022-12-25T15:13:32.260Z,100804.44
2022-12-25T15:16:04.808Z,100792.97
2022-12-25T15:18:38.025Z,100800.94
2022-12-25T15:21:07.207Z,100798.28
2022-12-25T15:23:35.301Z,100814.13
2022-12-25T15:26:04.624Z,100804.44
2022-12-25T15:28:32.683Z,100798.28
2022-12-25T15:31:00.750Z,100790.34
2022-12-25T15:33:28.818Z,100785.91
2022-12-25T15:35:56.860Z,100785.84
2022-12-25T15:38:25.084Z,100773.53
2022-12-25T15:40:53.148Z,100773.50
2022-12-25T15:43:40.498Z,100766.41
2022-12-25T15:46:10.269Z,100759.38
2022-12-25T15:48:38.361Z,100762.94
2022-12-25T15:51:06.684Z,100762.94
2022-12-25T15:53:34.677Z,100759.47
2022-12-25T15:56:02.746Z,100755.91
2022-12-25T15:58:32.139Z,100750.56
2022-12-25T16:01:00.174Z,100753.13
2022-12-25T16:03:28.228Z,100761.09
2022-12-25T16:05:56.518Z,100759.34
2022-12-25T16:08:25.171Z,100752.25
2022-12-25T16:10:53.799Z,100746.97
2022-12-25T16:13:21.845Z,100754.03
2022-12-25T16:15:51.234Z,100745.19
2022-12-25T16:18:19.396Z,100744.25
2022-12-25T16:20:47.432Z,100740.69
2022-12-25T16:23:15.388Z,100745.13
2022-12-25T16:25:43.506Z,100743.34
2022-12-25T16:28:11.743Z,100730.16
2022-12-25T16:30:40.860Z,100723.91
2022-12-25T16:33:11.923Z,100732.78
2022-12-25T16:35:39.932Z,100730.19
2022-12-25T16:38:08.248Z,100727.53
2022-12-25T16:40:36.367Z,100727.53
2022-12-25T16:43:04.380Z,100731.94
2022-12-25T16:45:32.606Z,100717.81
2022-12-25T16:48:00.550Z,100710.72
2022-12-25T16:50:29.884Z,100707.22
2022-12-25T16:52:57.886Z,100702.75
2022-12-25T16:55:29.887Z,100700.16
2022-12-25T16:57:58.550Z,100690.44
2022-12-25T17:00:26.717Z,100682.56
2022-12-25T17:02:56.019Z,100692.22
2022-12-25T17:05:24.401Z,100689.63
2022-12-25T17:07:53.777Z,100681.69
2022-12-25T17:10:22.200Z,100681.63
2022-12-25T17:12:50.247Z,100674.63
2022-12-25T17:15:18.433Z,100678.97
2022-12-25T17:17:46.457Z,100673.75
2022-12-25T17:20:15.539Z,100670.22
2022-12-25T17:22:43.528Z,100656.97
2022-12-25T17:25:13.124Z,100664.06
2022-12-25T17:27:41.164Z,100663.16
2022-12-25T17:30:10.529Z,100660.53
2022-12-25T17:32:38.537Z,100663.06
2022-12-25T17:35:07.107Z,100658.63
2022-12-25T17:37:35.783Z,100661.16
2022-12-25T17:40:03.868Z,100658.41
2022-12-25T17:42:33.689Z,100660.09
2022-12-25T17:45:01.707Z,100648.50
2022-12-25T17:47:31.206Z,100645.94
2022-12-25T17:49:59.350Z,100638.06
2022-12-25T17:52:27.413Z,100635.56
2022-12-25T17:54:55.440Z,100630.19
2022-12-25T17:57:23.487Z,100630.19
2022-12-25T17:59:52.962Z,100630.31
2022-12-25T18:02:21.151Z,100623.25
2022-12-25T18:04:49.459Z,100626.03
2022-12-25T18:07:17.635Z,100617.13
2022-12-25T18:09:45.682Z,100618.84
2022-12-25T18:12:13.674Z,100612.72
2022-12-25T18:14:41.678Z,100606.53
2022-12-25T18:17:11.137Z,100603.03
2022-12-25T18:19:39.108Z,100596.84
2022-12-25T18:22:07.152Z,100591.59
2022-12-25T18:24:35.107Z,100588.91
2022-12-25T18:27:03.133Z,100583.59
2022-12-25T18:29:31.161Z,100587.16
2022-12-25T18:31:59.214Z,100584.56
2022-12-25T18:34:28.706Z,100578.38
2022-12-25T18:37:02.858Z,100575.78
2022-12-25T18:39:31.486Z,100574.94
2022-12-25T18:42:17.259Z,100571.44
2022-12-25T18:44:45.608Z,100560.88
2022-12-25T18:47:13.623Z,100561.81
2022-12-25T18:49:43.076Z,100555.59
2022-12-25T18:52:48.782Z,100560.06
2022-12-25T18:54:59.049Z,100553.84
2022-12-25T18:57:27.110Z,100555.59
2022-12-25T18:59:55.097Z,100550.41
2022-12-25T19:02:23.182Z,100559.16
2022-12-25T19:04:53.138Z,100543.38
2022-12-25T19:07:22.591Z,100540.69
2022-12-25T19:09:51.213Z,100533.66
2022-12-25T19:12:19.253Z,100539.88
2022-12-25T19:14:48.478Z,100534.56
2022-12-25T19:17:16.901Z,100524.84
2022-12-25T19:19:45.016Z,100525.75
2022-12-25T19:22:14.659Z,100519.56
2022-12-25T19:24:42.784Z,100527.50
2022-12-25T19:27:10.820Z,100519.59
2022-12-25T19:29:38.861Z,100515.16
2022-12-25T19:32:07.213Z,100508.06
2022-12-25T19:34:35.404Z,100514.31
2022-12-25T19:37:03.755Z,100514.25
2022-12-25T19:39:33.143Z,100504.50
2022-12-25T19:42:01.084Z,100498.41
2022-12-25T19:44:29.097Z,100502.84
2022-12-25T19:46:57.137Z,100497.53
2022-12-25T19:49:25.134Z,100493.06
2022-12-25T19:51:53.112Z,100475.44
2022-12-25T19:54:21.270Z,100473.59
2022-12-25T19:56:50.866Z,100478.94
2022-12-25T19:59:18.859Z,100481.53
2022-12-25T20:01:47.009Z,100477.13
2022-12-25T20:04:17.481Z,100474.50
2022-12-25T20:06:46.165Z,100467.34
2022-12-25T20:09:20.592Z,100463.97
2022-12-25T20:11:50.529Z,100462.97
2022-12-25T20:14:19.557Z,100477.97
2022-12-25T20:16:47.944Z,100469.97
2022-12-25T20:19:16.513Z,100464.66
2022-12-25T20:21:44.490Z,100459.41
2022-12-25T20:24:12.510Z,100449.72
2022-12-25T20:26:40.815Z,100448.81
2022-12-25T20:29:10.118Z,100452.41
2022-12-25T20:31:38.158Z,100455.03
2022-12-25T20:34:08.199Z,100463.94
2022-12-25T20:36:37.895Z,100465.63
2022-12-25T20:39:09.329Z,100465.59
2022-12-25T20:41:37.869Z,100455.03
2022-12-25T20:44:06.684Z,100459.41
2022-12-25T20:46:36.399Z,100459.38
2022-12-25T20:49:04.704Z,100456.72
2022-12-25T20:51:32.676Z,100459.34
2022-12-25T20:54:01.104Z,100457.53
2022-12-25T20:56:30.196Z,100459.34
2022-12-25T20:59:00.279Z,100463.72
2022-12-25T21:01:29.737Z,100468.16
2022-12-25T21:03:59.501Z,100458.44
2022-12-25T21:06:27.854Z,100463.75
2022-12-25T21:08:57.127Z,100463.72
2022-12-25T21:11:25.271Z,100456.66
2022-12-25T21:13:53.311Z,100458.41
2022-12-25T21:16:23.245Z,100455.72
2022-12-25T21:18:53.242Z,100454.84
2022-12-25T21:21:23.359Z,100466.38
2022-12-25T21:23:51.872Z,100460.22
2022-12-25T21:26:22.534Z,100457.56
2022-12-25T21:28:53.201Z,100460.28
2022-12-25T21:31:21.719Z,100456.72
2022-12-25T21:33:51.879Z,100452.34
2022-12-25T21:36:23.331Z,100455.78
2022-12-25T21:38:54.151Z,100455.84
2022-12-25T21:41:22.393Z,100455.78
2022-12-25T21:43:50.387Z,100459.44
2022-12-25T21:46:18.520Z,100456.75
2022-12-25T21:48:46.761Z,100449.69
2022-12-25T21:51:35.013Z,100452.28
2022-12-25T21:54:05.505Z,100451.34
2022-12-25T21:56:41.464Z,100452.16
2022-12-25T21:59:14.208Z,100435.41
2022-12-25T22:01:42.658Z,100429.19
2022-12-25T22:04:10.870Z,100429.22
2022-12-25T22:06:56.630Z,100425.66
2022-12-25T22:09:26.038Z,100409.03
2022-12-25T22:12:11.712Z,100416.00
2022-12-25T22:14:56.821Z,100413.31
2022-12-25T22:17:44.654Z,100418.59
2022-12-25T22:20:15.318Z,100420.41
2022-12-25T22:22:43.692Z,100420.41
2022-12-25T22:25:14.205Z,100422.19
2022-12-25T22:27:43.569Z,100420.34
2022-12-25T22:30:14.251Z,100423.00
2022-12-25T22:32:42.697Z,100411.50
2022-12-25T22:35:12.295Z,100412.38
2022-12-25T22:37:40.648Z,100423.03
2022-12-25T22:40:11.268Z,100420.38
2022-12-25T22:42:40.655Z,100429.22
2022-12-25T22:45:09.859Z,100429.22
2022-12-25T22:47:37.924Z,100430.09
2022-12-25T22:50:06.739Z,100426.56
2022-12-25T22:52:34.832Z,100428.38
2022-12-25T22:55:03.023Z,100429.19
2022-12-25T22:57:30.992Z,100424.78
2022-12-25T23:00:00.692Z,100427.44
2022-12-25T23:02:28.814Z,100425.66
2022-12-25T23:04:56.912Z,100429.19
2022-12-25T23:07:24.888Z,100432.78
2022-12-25T23:09:52.904Z,100426.59
2022-12-25T23:12:38.378Z,100424.81
2022-12-25T23:15:09.011Z,100426.63
2022-12-25T23:18:02.699Z,100431.88
2022-12-25T23:20:48.276Z,100435.41
2022-12-25T23:23:34.957Z,100434.50
2022-12-25T23:26:09.773Z,100428.28
2022-12-25T23:29:02.180Z,100424.78
2022-12-25T23:31:33.956Z,100427.47
2022-12-25T23:34:03.111Z,100419.59
2022-12-25T23:36:31.353Z,100428.31
2022-12-25T23:39:06.675Z,100431.78
2022-12-25T23:41:36.914Z,100424.72
2022-12-25T23:44:05.240Z,100429.19
2022-12-25T23:46:34.618Z,100425.69
2022-12-25T23:49:03.083Z,100428.22
2022-12-25T23:51:31.218Z,100420.25
2022-12-25T23:53:59.315Z,100426.38
2022-12-25T23:56:27.331Z,100432.47
2022-12-25T23:58:55.330Z,100425.38
